sensor_id;sensor_type;location;lat;lon;timestamp;P1;durP1;ratioP1;P2;durP2;ratioP2
75340;SDS011;64931;47.562;18.920;2023-06-04T00:02:21;4.40;;;1.80;;
75340;SDS011;64931;47.562;18.920;2023-06-04T00:04:46;6.10;;;1.80;;
75340;SDS011;64931;47.562;18.920;2023-06-04T00:07:12;4.70;;;2.00;;
75340;SDS011;64931;47.562;18.920;2023-06-04T00:09:37;5.00;;;1.90;;
75340;SDS011;64931;47.562;18.920;2023-06-04T00:12:03;3.60;;;1.60;;
75340;SDS011;64931;47.562;18.920;2023-06-04T00:14:28;12.00;;;2.40;;
75340;SDS011;64931;47.562;18.920;2023-06-04T00:16:54;4.90;;;1.90;;
75340;SDS011;64931;47.562;18.920;2023-06-04T00:19:19;8.00;;;2.10;;
75340;SDS011;64931;47.562;18.920;2023-06-04T00:21:45;3.70;;;1.80;;
75340;SDS011;64931;47.562;18.920;2023-06-04T00:24:10;4.30;;;1.70;;
75340;SDS011;64931;47.562;18.920;2023-06-04T00:26:37;6.70;;;2.20;;
75340;SDS011;64931;47.562;18.920;2023-06-04T00:29:03;3.70;;;1.90;;
75340;SDS011;64931;47.562;18.920;2023-06-04T00:31:28;4.10;;;1.70;;
75340;SDS011;64931;47.562;18.920;2023-06-04T00:33:54;4.40;;;1.70;;
75340;SDS011;64931;47.562;18.920;2023-06-04T00:36:19;5.20;;;1.80;;
75340;SDS011;64931;47.562;18.920;2023-06-04T00:38:45;4.30;;;1.70;;
75340;SDS011;64931;47.562;18.920;2023-06-04T00:41:11;4.90;;;1.80;;
75340;SDS011;64931;47.562;18.920;2023-06-04T00:43:36;4.10;;;1.60;;
75340;SDS011;64931;47.562;18.920;2023-06-04T00:46:01;4.10;;;1.80;;
75340;SDS011;64931;47.562;18.920;2023-06-04T00:48:30;5.00;;;1.70;;
75340;SDS011;64931;47.562;18.920;2023-06-04T00:50:56;4.60;;;2.00;;
75340;SDS011;64931;47.562;18.920;2023-06-04T00:53:23;4.40;;;2.00;;
75340;SDS011;64931;47.562;18.920;2023-06-04T00:55:50;3.80;;;1.90;;
75340;SDS011;64931;47.562;18.920;2023-06-04T00:58:16;4.20;;;1.80;;
75340;SDS011;64931;47.562;18.920;2023-06-04T01:00:42;5.40;;;1.90;;
75340;SDS011;64931;47.562;18.920;2023-06-04T01:03:10;4.70;;;1.90;;
75340;SDS011;64931;47.562;18.920;2023-06-04T01:05:51;4.00;;;2.10;;
75340;SDS011;64931;47.562;18.920;2023-06-04T01:08:46;4.40;;;1.80;;
75340;SDS011;64931;47.562;18.920;2023-06-04T01:11:14;3.40;;;1.30;;
75340;SDS011;64931;47.562;18.920;2023-06-04T01:13:40;4.10;;;1.70;;
75340;SDS011;64931;47.562;18.920;2023-06-04T01:16:05;4.00;;;1.60;;
75340;SDS011;64931;47.562;18.920;2023-06-04T01:18:30;3.40;;;1.50;;
75340;SDS011;64931;47.562;18.920;2023-06-04T01:21:02;5.10;;;1.60;;
75340;SDS011;64931;47.562;18.920;2023-06-04T01:26:29;3.60;;;1.40;;
75340;SDS011;64931;47.562;18.920;2023-06-04T01:28:56;3.40;;;1.70;;
75340;SDS011;64931;47.562;18.920;2023-06-04T01:31:23;4.20;;;1.70;;
75340;SDS011;64931;47.562;18.920;2023-06-04T01:33:54;4.20;;;1.60;;
75340;SDS011;64931;47.562;18.920;2023-06-04T01:36:23;4.50;;;1.60;;
75340;SDS011;64931;47.562;18.920;2023-06-04T01:38:49;4.40;;;1.70;;
75340;SDS011;64931;47.562;18.920;2023-06-04T01:41:15;3.70;;;1.50;;
75340;SDS011;64931;47.562;18.920;2023-06-04T01:43:41;3.40;;;1.60;;
75340;SDS011;64931;47.562;18.920;2023-06-04T01:46:06;3.40;;;1.60;;
75340;SDS011;64931;47.562;18.920;2023-06-04T01:48:32;5.70;;;1.80;;
75340;SDS011;64931;47.562;18.920;2023-06-04T01:50:57;4.10;;;1.70;;
75340;SDS011;64931;47.562;18.920;2023-06-04T01:53:23;4.30;;;1.80;;
75340;SDS011;64931;47.562;18.920;2023-06-04T01:55:48;4.30;;;1.70;;
75340;SDS011;64931;47.562;18.920;2023-06-04T01:58:14;4.00;;;1.60;;
75340;SDS011;64931;47.562;18.920;2023-06-04T02:00:48;3.60;;;1.50;;
75340;SDS011;64931;47.562;18.920;2023-06-04T02:03:15;3.80;;;1.60;;
75340;SDS011;64931;47.562;18.920;2023-06-04T02:05:41;4.10;;;1.70;;
75340;SDS011;64931;47.562;18.920;2023-06-04T02:08:09;4.10;;;1.70;;
75340;SDS011;64931;47.562;18.920;2023-06-04T02:10:36;4.10;;;1.70;;
75340;SDS011;64931;47.562;18.920;2023-06-04T02:13:02;6.30;;;1.70;;
75340;SDS011;64931;47.562;18.920;2023-06-04T02:15:29;4.30;;;1.70;;
75340;SDS011;64931;47.562;18.920;2023-06-04T02:17:56;5.90;;;1.90;;
75340;SDS011;64931;47.562;18.920;2023-06-04T02:20:27;4.70;;;1.80;;
75340;SDS011;64931;47.562;18.920;2023-06-04T02:22:53;4.80;;;1.70;;
75340;SDS011;64931;47.562;18.920;2023-06-04T02:25:19;4.90;;;1.70;;
75340;SDS011;64931;47.562;18.920;2023-06-04T02:27:45;3.80;;;1.70;;
75340;SDS011;64931;47.562;18.920;2023-06-04T02:30:11;4.50;;;1.80;;
75340;SDS011;64931;47.562;18.920;2023-06-04T02:32:36;4.70;;;1.60;;
75340;SDS011;64931;47.562;18.920;2023-06-04T02:35:02;4.30;;;1.80;;
75340;SDS011;64931;47.562;18.920;2023-06-04T02:37:28;3.70;;;1.60;;
75340;SDS011;64931;47.562;18.920;2023-06-04T02:39:55;2.80;;;1.40;;
75340;SDS011;64931;47.562;18.920;2023-06-04T02:42:20;4.70;;;1.70;;
75340;SDS011;64931;47.562;18.920;2023-06-04T02:44:46;5.30;;;1.70;;
75340;SDS011;64931;47.562;18.920;2023-06-04T02:47:11;4.00;;;1.70;;
75340;SDS011;64931;47.562;18.920;2023-06-04T02:49:36;4.50;;;1.70;;
75340;SDS011;64931;47.562;18.920;2023-06-04T02:52:02;5.80;;;1.50;;
75340;SDS011;64931;47.562;18.920;2023-06-04T02:54:27;4.40;;;1.90;;
75340;SDS011;64931;47.562;18.920;2023-06-04T02:56:53;4.30;;;1.40;;
75340;SDS011;64931;47.562;18.920;2023-06-04T02:59:18;5.90;;;1.50;;
75340;SDS011;64931;47.562;18.920;2023-06-04T03:01:44;4.70;;;1.50;;
75340;SDS011;64931;47.562;18.920;2023-06-04T03:04:09;3.70;;;1.50;;
75340;SDS011;64931;47.562;18.920;2023-06-04T03:06:39;3.90;;;1.40;;
75340;SDS011;64931;47.562;18.920;2023-06-04T03:09:10;4.90;;;1.60;;
75340;SDS011;64931;47.562;18.920;2023-06-04T03:11:36;4.50;;;1.60;;
75340;SDS011;64931;47.562;18.920;2023-06-04T03:14:02;4.50;;;1.60;;
75340;SDS011;64931;47.562;18.920;2023-06-04T03:16:27;3.20;;;1.40;;
75340;SDS011;64931;47.562;18.920;2023-06-04T03:18:52;3.60;;;1.50;;
75340;SDS011;64931;47.562;18.920;2023-06-04T03:21:18;4.70;;;1.60;;
75340;SDS011;64931;47.562;18.920;2023-06-04T03:23:43;3.70;;;1.30;;
75340;SDS011;64931;47.562;18.920;2023-06-04T03:26:09;4.10;;;1.50;;
75340;SDS011;64931;47.562;18.920;2023-06-04T03:28:37;5.50;;;1.60;;
75340;SDS011;64931;47.562;18.920;2023-06-04T03:31:03;4.40;;;1.70;;
75340;SDS011;64931;47.562;18.920;2023-06-04T03:33:29;3.90;;;1.40;;
75340;SDS011;64931;47.562;18.920;2023-06-04T03:35:54;5.00;;;1.80;;
75340;SDS011;64931;47.562;18.920;2023-06-04T03:38:24;4.00;;;1.70;;
75340;SDS011;64931;47.562;18.920;2023-06-04T03:40:50;3.70;;;1.60;;
75340;SDS011;64931;47.562;18.920;2023-06-04T03:43:17;4.70;;;1.40;;
75340;SDS011;64931;47.562;18.920;2023-06-04T03:45:43;4.40;;;1.60;;
75340;SDS011;64931;47.562;18.920;2023-06-04T03:48:09;5.50;;;1.60;;
75340;SDS011;64931;47.562;18.920;2023-06-04T03:50:34;3.30;;;1.40;;
75340;SDS011;64931;47.562;18.920;2023-06-04T03:53:00;4.60;;;1.70;;
75340;SDS011;64931;47.562;18.920;2023-06-04T03:55:25;3.80;;;1.70;;
75340;SDS011;64931;47.562;18.920;2023-06-04T03:57:51;4.20;;;1.60;;
75340;SDS011;64931;47.562;18.920;2023-06-04T04:00:16;4.40;;;1.80;;
75340;SDS011;64931;47.562;18.920;2023-06-04T04:02:42;3.60;;;1.70;;
75340;SDS011;64931;47.562;18.920;2023-06-04T04:05:07;4.30;;;1.60;;
75340;SDS011;64931;47.562;18.920;2023-06-04T04:07:34;4.70;;;1.40;;
75340;SDS011;64931;47.562;18.920;2023-06-04T04:10:00;3.20;;;1.40;;
75340;SDS011;64931;47.562;18.920;2023-06-04T04:12:25;3.70;;;1.70;;
75340;SDS011;64931;47.562;18.920;2023-06-04T04:14:51;5.60;;;1.80;;
75340;SDS011;64931;47.562;18.920;2023-06-04T04:17:16;4.80;;;1.70;;
75340;SDS011;64931;47.562;18.920;2023-06-04T04:19:42;3.60;;;1.70;;
75340;SDS011;64931;47.562;18.920;2023-06-04T04:22:07;4.60;;;1.60;;
75340;SDS011;64931;47.562;18.920;2023-06-04T04:24:34;4.60;;;1.90;;
75340;SDS011;64931;47.562;18.920;2023-06-04T04:27:02;4.70;;;1.90;;
75340;SDS011;64931;47.562;18.920;2023-06-04T04:29:29;4.40;;;1.90;;
75340;SDS011;64931;47.562;18.920;2023-06-04T04:31:57;3.60;;;1.80;;
75340;SDS011;64931;47.562;18.920;2023-06-04T04:34:26;3.80;;;1.60;;
75340;SDS011;64931;47.562;18.920;2023-06-04T04:36:52;4.40;;;1.70;;
75340;SDS011;64931;47.562;18.920;2023-06-04T04:39:26;4.20;;;2.10;;
75340;SDS011;64931;47.562;18.920;2023-06-04T04:41:52;4.90;;;2.10;;
75340;SDS011;64931;47.562;18.920;2023-06-04T04:44:18;5.20;;;2.10;;
75340;SDS011;64931;47.562;18.920;2023-06-04T04:46:45;4.40;;;2.10;;
75340;SDS011;64931;47.562;18.920;2023-06-04T04:49:10;4.90;;;1.70;;
75340;SDS011;64931;47.562;18.920;2023-06-04T04:51:35;3.10;;;1.40;;
75340;SDS011;64931;47.562;18.920;2023-06-04T04:54:01;4.50;;;1.50;;
75340;SDS011;64931;47.562;18.920;2023-06-04T04:56:27;3.50;;;1.80;;
75340;SDS011;64931;47.562;18.920;2023-06-04T04:58:53;4.90;;;1.70;;
75340;SDS011;64931;47.562;18.920;2023-06-04T05:01:19;4.60;;;1.60;;
75340;SDS011;64931;47.562;18.920;2023-06-04T05:03:45;3.60;;;1.60;;
75340;SDS011;64931;47.562;18.920;2023-06-04T05:06:11;4.10;;;1.70;;
75340;SDS011;64931;47.562;18.920;2023-06-04T05:08:36;3.30;;;1.60;;
75340;SDS011;64931;47.562;18.920;2023-06-04T05:11:02;3.50;;;1.80;;
75340;SDS011;64931;47.562;18.920;2023-06-04T05:13:27;3.80;;;1.40;;
75340;SDS011;64931;47.562;18.920;2023-06-04T05:15:53;3.20;;;1.30;;
75340;SDS011;64931;47.562;18.920;2023-06-04T05:18:18;4.60;;;1.30;;
75340;SDS011;64931;47.562;18.920;2023-06-04T05:20:57;3.70;;;1.50;;
75340;SDS011;64931;47.562;18.920;2023-06-04T05:23:25;3.90;;;1.40;;
75340;SDS011;64931;47.562;18.920;2023-06-04T05:25:51;3.70;;;1.40;;
75340;SDS011;64931;47.562;18.920;2023-06-04T05:28:17;3.10;;;1.20;;
75340;SDS011;64931;47.562;18.920;2023-06-04T05:30:43;4.40;;;2.20;;
75340;SDS011;64931;47.562;18.920;2023-06-04T05:33:09;4.20;;;1.60;;
75340;SDS011;64931;47.562;18.920;2023-06-04T05:35:49;3.20;;;1.30;;
75340;SDS011;64931;47.562;18.920;2023-06-04T05:38:14;2.70;;;1.20;;
75340;SDS011;64931;47.562;18.920;2023-06-04T05:40:51;5.10;;;1.50;;
75340;SDS011;64931;47.562;18.920;2023-06-04T05:43:17;3.20;;;1.50;;
75340;SDS011;64931;47.562;18.920;2023-06-04T05:45:43;4.10;;;1.40;;
75340;SDS011;64931;47.562;18.920;2023-06-04T05:48:09;4.50;;;1.60;;
75340;SDS011;64931;47.562;18.920;2023-06-04T05:50:34;3.60;;;1.30;;
75340;SDS011;64931;47.562;18.920;2023-06-04T05:52:59;4.30;;;1.80;;
75340;SDS011;64931;47.562;18.920;2023-06-04T05:55:25;4.40;;;1.90;;
75340;SDS011;64931;47.562;18.920;2023-06-04T05:57:50;3.60;;;1.30;;
75340;SDS011;64931;47.562;18.920;2023-06-04T06:00:19;9.30;;;2.60;;
75340;SDS011;64931;47.562;18.920;2023-06-04T06:02:45;2.50;;;1.20;;
75340;SDS011;64931;47.562;18.920;2023-06-04T06:05:14;3.60;;;1.40;;
75340;SDS011;64931;47.562;18.920;2023-06-04T06:07:40;5.10;;;1.40;;
75340;SDS011;64931;47.562;18.920;2023-06-04T06:10:06;3.50;;;1.40;;
75340;SDS011;64931;47.562;18.920;2023-06-04T06:12:32;3.60;;;1.20;;
75340;SDS011;64931;47.562;18.920;2023-06-04T06:14:57;4.50;;;1.60;;
75340;SDS011;64931;47.562;18.920;2023-06-04T06:17:22;3.30;;;1.40;;
75340;SDS011;64931;47.562;18.920;2023-06-04T06:19:49;3.50;;;1.50;;
75340;SDS011;64931;47.562;18.920;2023-06-04T06:22:14;5.80;;;1.50;;
75340;SDS011;64931;47.562;18.920;2023-06-04T06:24:40;4.20;;;1.40;;
75340;SDS011;64931;47.562;18.920;2023-06-04T06:27:05;3.30;;;1.30;;
75340;SDS011;64931;47.562;18.920;2023-06-04T06:29:32;3.80;;;1.30;;
75340;SDS011;64931;47.562;18.920;2023-06-04T06:31:58;5.40;;;1.50;;
75340;SDS011;64931;47.562;18.920;2023-06-04T06:34:24;4.00;;;1.40;;
75340;SDS011;64931;47.562;18.920;2023-06-04T06:36:50;2.80;;;1.20;;
75340;SDS011;64931;47.562;18.920;2023-06-04T06:39:15;3.70;;;1.30;;
75340;SDS011;64931;47.562;18.920;2023-06-04T06:41:41;3.90;;;1.50;;
75340;SDS011;64931;47.562;18.920;2023-06-04T06:44:06;4.10;;;1.30;;
75340;SDS011;64931;47.562;18.920;2023-06-04T06:46:32;5.70;;;1.40;;
75340;SDS011;64931;47.562;18.920;2023-06-04T06:48:58;3.80;;;1.50;;
75340;SDS011;64931;47.562;18.920;2023-06-04T06:51:23;5.00;;;1.50;;
75340;SDS011;64931;47.562;18.920;2023-06-04T06:53:49;7.80;;;1.60;;
75340;SDS011;64931;47.562;18.920;2023-06-04T06:56:16;3.40;;;1.50;;
75340;SDS011;64931;47.562;18.920;2023-06-04T06:58:45;3.00;;;1.40;;
75340;SDS011;64931;47.562;18.920;2023-06-04T07:01:12;5.10;;;1.70;;
75340;SDS011;64931;47.562;18.920;2023-06-04T07:03:38;4.00;;;1.70;;
75340;SDS011;64931;47.562;18.920;2023-06-04T07:06:05;3.80;;;1.60;;
75340;SDS011;64931;47.562;18.920;2023-06-04T07:08:31;4.60;;;1.50;;
75340;SDS011;64931;47.562;18.920;2023-06-04T07:10:57;4.60;;;2.10;;
75340;SDS011;64931;47.562;18.920;2023-06-04T07:13:23;4.90;;;1.70;;
75340;SDS011;64931;47.562;18.920;2023-06-04T07:15:48;5.10;;;1.60;;
75340;SDS011;64931;47.562;18.920;2023-06-04T07:18:14;5.60;;;1.90;;
75340;SDS011;64931;47.562;18.920;2023-06-04T07:20:39;4.00;;;1.50;;
75340;SDS011;64931;47.562;18.920;2023-06-04T07:23:05;3.70;;;2.00;;
75340;SDS011;64931;47.562;18.920;2023-06-04T07:27:59;6.50;;;1.60;;
75340;SDS011;64931;47.562;18.920;2023-06-04T07:30:24;4.00;;;1.60;;
75340;SDS011;64931;47.562;18.920;2023-06-04T07:32:50;5.70;;;1.70;;
75340;SDS011;64931;47.562;18.920;2023-06-04T07:35:16;4.10;;;1.70;;
75340;SDS011;64931;47.562;18.920;2023-06-04T07:37:41;4.00;;;1.50;;
75340;SDS011;64931;47.562;18.920;2023-06-04T07:40:10;4.00;;;1.70;;
75340;SDS011;64931;47.562;18.920;2023-06-04T07:42:36;3.90;;;1.70;;
75340;SDS011;64931;47.562;18.920;2023-06-04T07:45:02;4.30;;;1.60;;
75340;SDS011;64931;47.562;18.920;2023-06-04T07:47:28;4.60;;;1.50;;
75340;SDS011;64931;47.562;18.920;2023-06-04T07:49:53;3.50;;;1.50;;
75340;SDS011;64931;47.562;18.920;2023-06-04T07:52:19;5.90;;;2.00;;
75340;SDS011;64931;47.562;18.920;2023-06-04T07:54:44;3.90;;;1.50;;
75340;SDS011;64931;47.562;18.920;2023-06-04T07:57:10;6.00;;;1.70;;
75340;SDS011;64931;47.562;18.920;2023-06-04T07:59:35;6.10;;;1.50;;
75340;SDS011;64931;47.562;18.920;2023-06-04T08:02:01;4.70;;;1.70;;
75340;SDS011;64931;47.562;18.920;2023-06-04T08:04:26;2.90;;;1.30;;
75340;SDS011;64931;47.562;18.920;2023-06-04T08:06:52;4.20;;;1.40;;
75340;SDS011;64931;47.562;18.920;2023-06-04T08:09:18;3.80;;;1.30;;
75340;SDS011;64931;47.562;18.920;2023-06-04T08:11:43;5.60;;;1.60;;
75340;SDS011;64931;47.562;18.920;2023-06-04T08:14:12;4.50;;;1.60;;
75340;SDS011;64931;47.562;18.920;2023-06-04T08:16:38;3.30;;;1.30;;
75340;SDS011;64931;47.562;18.920;2023-06-04T08:19:05;3.00;;;1.30;;
75340;SDS011;64931;47.562;18.920;2023-06-04T08:21:32;6.10;;;1.80;;
75340;SDS011;64931;47.562;18.920;2023-06-04T08:23:58;4.60;;;1.70;;
75340;SDS011;64931;47.562;18.920;2023-06-04T08:26:24;4.30;;;1.40;;
75340;SDS011;64931;47.562;18.920;2023-06-04T08:28:50;2.80;;;1.40;;
75340;SDS011;64931;47.562;18.920;2023-06-04T08:31:16;4.10;;;1.60;;
75340;SDS011;64931;47.562;18.920;2023-06-04T08:33:42;5.70;;;1.60;;
75340;SDS011;64931;47.562;18.920;2023-06-04T08:36:09;3.90;;;1.40;;
75340;SDS011;64931;47.562;18.920;2023-06-04T08:38:37;4.00;;;1.50;;
75340;SDS011;64931;47.562;18.920;2023-06-04T08:41:06;4.30;;;1.70;;
75340;SDS011;64931;47.562;18.920;2023-06-04T08:43:41;3.60;;;1.40;;
75340;SDS011;64931;47.562;18.920;2023-06-04T08:46:10;3.60;;;1.60;;
75340;SDS011;64931;47.562;18.920;2023-06-04T08:48:37;4.20;;;1.70;;
75340;SDS011;64931;47.562;18.920;2023-06-04T08:51:04;4.60;;;1.60;;
75340;SDS011;64931;47.562;18.920;2023-06-04T08:53:31;6.30;;;1.50;;
75340;SDS011;64931;47.562;18.920;2023-06-04T08:55:56;5.70;;;1.90;;
75340;SDS011;64931;47.562;18.920;2023-06-04T08:58:22;5.40;;;1.50;;
75340;SDS011;64931;47.562;18.920;2023-06-04T09:00:48;4.80;;;1.60;;
75340;SDS011;64931;47.562;18.920;2023-06-04T09:03:14;4.00;;;1.80;;
75340;SDS011;64931;47.562;18.920;2023-06-04T09:05:41;5.90;;;1.50;;
75340;SDS011;64931;47.562;18.920;2023-06-04T09:08:12;5.80;;;1.70;;
75340;SDS011;64931;47.562;18.920;2023-06-04T09:10:39;4.30;;;1.40;;
75340;SDS011;64931;47.562;18.920;2023-06-04T09:13:06;3.40;;;1.40;;
75340;SDS011;64931;47.562;18.920;2023-06-04T09:15:32;4.70;;;1.60;;
75340;SDS011;64931;47.562;18.920;2023-06-04T09:17:57;4.00;;;1.30;;
75340;SDS011;64931;47.562;18.920;2023-06-04T09:20:23;3.80;;;1.60;;
75340;SDS011;64931;47.562;18.920;2023-06-04T09:22:49;6.00;;;1.70;;
75340;SDS011;64931;47.562;18.920;2023-06-04T09:25:25;6.40;;;1.80;;
75340;SDS011;64931;47.562;18.920;2023-06-04T09:27:51;5.00;;;1.60;;
75340;SDS011;64931;47.562;18.920;2023-06-04T09:30:18;3.40;;;1.50;;
75340;SDS011;64931;47.562;18.920;2023-06-04T09:32:43;6.20;;;1.90;;
75340;SDS011;64931;47.562;18.920;2023-06-04T09:35:13;4.00;;;1.50;;
75340;SDS011;64931;47.562;18.920;2023-06-04T09:37:39;5.90;;;1.80;;
75340;SDS011;64931;47.562;18.920;2023-06-04T09:40:06;4.60;;;1.50;;
75340;SDS011;64931;47.562;18.920;2023-06-04T09:42:43;4.40;;;1.80;;
75340;SDS011;64931;47.562;18.920;2023-06-04T09:45:09;4.70;;;1.40;;
75340;SDS011;64931;47.562;18.920;2023-06-04T09:47:42;4.30;;;1.60;;
75340;SDS011;64931;47.562;18.920;2023-06-04T09:50:09;5.30;;;1.80;;
75340;SDS011;64931;47.562;18.920;2023-06-04T09:52:35;4.30;;;1.50;;
75340;SDS011;64931;47.562;18.920;2023-06-04T09:55:02;3.70;;;1.90;;
75340;SDS011;64931;47.562;18.920;2023-06-04T09:57:29;4.10;;;1.90;;
75340;SDS011;64931;47.562;18.920;2023-06-04T09:59:57;4.70;;;1.80;;
75340;SDS011;64931;47.562;18.920;2023-06-04T10:02:22;2.80;;;1.30;;
75340;SDS011;64931;47.562;18.920;2023-06-04T10:04:55;7.10;;;1.80;;
75340;SDS011;64931;47.562;18.920;2023-06-04T10:07:24;4.30;;;1.60;;
75340;SDS011;64931;47.562;18.920;2023-06-04T10:09:50;4.80;;;1.80;;
75340;SDS011;64931;47.562;18.920;2023-06-04T10:12:16;4.10;;;1.60;;
75340;SDS011;64931;47.562;18.920;2023-06-04T10:14:52;5.50;;;1.70;;
75340;SDS011;64931;47.562;18.920;2023-06-04T10:17:19;4.20;;;1.70;;
75340;SDS011;64931;47.562;18.920;2023-06-04T10:19:46;6.10;;;1.70;;
75340;SDS011;64931;47.562;18.920;2023-06-04T10:22:13;5.30;;;1.80;;
75340;SDS011;64931;47.562;18.920;2023-06-04T10:24:38;3.80;;;1.50;;
75340;SDS011;64931;47.562;18.920;2023-06-04T10:27:04;7.10;;;1.60;;
75340;SDS011;64931;47.562;18.920;2023-06-04T10:29:36;6.20;;;1.60;;
75340;SDS011;64931;47.562;18.920;2023-06-04T10:32:02;8.20;;;1.90;;
75340;SDS011;64931;47.562;18.920;2023-06-04T10:34:30;3.20;;;1.50;;
75340;SDS011;64931;47.562;18.920;2023-06-04T10:36:56;7.90;;;2.00;;
75340;SDS011;64931;47.562;18.920;2023-06-04T10:39:28;5.40;;;1.80;;
75340;SDS011;64931;47.562;18.920;2023-06-04T10:42:01;5.70;;;1.60;;
75340;SDS011;64931;47.562;18.920;2023-06-04T10:44:28;6.80;;;1.60;;
75340;SDS011;64931;47.562;18.920;2023-06-04T10:46:55;5.40;;;1.80;;
75340;SDS011;64931;47.562;18.920;2023-06-04T10:49:28;4.30;;;1.90;;
75340;SDS011;64931;47.562;18.920;2023-06-04T10:51:54;3.60;;;1.80;;
75340;SDS011;64931;47.562;18.920;2023-06-04T10:54:28;6.60;;;2.00;;
75340;SDS011;64931;47.562;18.920;2023-06-04T10:56:54;6.00;;;1.80;;
75340;SDS011;64931;47.562;18.920;2023-06-04T10:59:20;3.80;;;1.60;;
75340;SDS011;64931;47.562;18.920;2023-06-04T11:01:45;6.60;;;2.00;;
75340;SDS011;64931;47.562;18.920;2023-06-04T11:04:18;3.90;;;1.90;;
75340;SDS011;64931;47.562;18.920;2023-06-04T11:06:48;5.50;;;1.90;;
75340;SDS011;64931;47.562;18.920;2023-06-04T11:09:20;8.30;;;1.70;;
75340;SDS011;64931;47.562;18.920;2023-06-04T11:11:55;4.30;;;1.90;;
75340;SDS011;64931;47.562;18.920;2023-06-04T11:14:22;5.30;;;1.80;;
75340;SDS011;64931;47.562;18.920;2023-06-04T11:16:50;3.40;;;1.40;;
75340;SDS011;64931;47.562;18.920;2023-06-04T11:19:15;4.50;;;1.70;;
75340;SDS011;64931;47.562;18.920;2023-06-04T11:21:40;5.50;;;1.90;;
75340;SDS011;64931;47.562;18.920;2023-06-04T11:24:06;4.60;;;2.00;;
75340;SDS011;64931;47.562;18.920;2023-06-04T11:28:58;5.70;;;1.70;;
75340;SDS011;64931;47.562;18.920;2023-06-04T11:31:24;4.30;;;1.70;;
75340;SDS011;64931;47.562;18.920;2023-06-04T11:33:49;6.30;;;1.90;;
75340;SDS011;64931;47.562;18.920;2023-06-04T11:41:31;4.10;;;1.70;;
75340;SDS011;64931;47.562;18.920;2023-06-04T11:44:01;4.70;;;1.70;;
75340;SDS011;64931;47.562;18.920;2023-06-04T11:46:32;5.50;;;2.00;;
75340;SDS011;64931;47.562;18.920;2023-06-04T11:48:58;7.00;;;1.90;;
75340;SDS011;64931;47.562;18.920;2023-06-04T11:51:23;7.10;;;1.80;;
75340;SDS011;64931;47.562;18.920;2023-06-04T11:53:49;5.90;;;1.80;;
75340;SDS011;64931;47.562;18.920;2023-06-04T11:56:15;3.80;;;1.60;;
75340;SDS011;64931;47.562;18.920;2023-06-04T11:58:41;4.10;;;1.80;;
75340;SDS011;64931;47.562;18.920;2023-06-04T12:01:07;4.50;;;1.70;;
75340;SDS011;64931;47.562;18.920;2023-06-04T12:03:40;5.10;;;1.70;;
75340;SDS011;64931;47.562;18.920;2023-06-04T12:06:10;7.10;;;1.90;;
75340;SDS011;64931;47.562;18.920;2023-06-04T12:08:46;5.40;;;1.90;;
75340;SDS011;64931;47.562;18.920;2023-06-04T12:11:31;5.80;;;1.70;;
75340;SDS011;64931;47.562;18.920;2023-06-04T12:14:02;7.70;;;2.20;;
75340;SDS011;64931;47.562;18.920;2023-06-04T12:16:29;3.90;;;1.60;;
75340;SDS011;64931;47.562;18.920;2023-06-04T12:19:08;5.40;;;1.80;;
75340;SDS011;64931;47.562;18.920;2023-06-04T12:21:35;4.80;;;1.60;;
75340;SDS011;64931;47.562;18.920;2023-06-04T12:26:39;6.90;;;2.10;;
75340;SDS011;64931;47.562;18.920;2023-06-04T12:29:10;3.80;;;1.70;;
75340;SDS011;64931;47.562;18.920;2023-06-04T12:31:40;5.60;;;1.80;;
75340;SDS011;64931;47.562;18.920;2023-06-04T12:34:07;8.40;;;1.80;;
75340;SDS011;64931;47.562;18.920;2023-06-04T12:36:33;4.80;;;1.70;;
75340;SDS011;64931;47.562;18.920;2023-06-04T12:39:00;6.00;;;1.80;;
75340;SDS011;64931;47.562;18.920;2023-06-04T12:41:26;3.80;;;1.70;;
75340;SDS011;64931;47.562;18.920;2023-06-04T12:43:52;5.10;;;1.70;;
75340;SDS011;64931;47.562;18.920;2023-06-04T12:46:18;4.10;;;1.90;;
75340;SDS011;64931;47.562;18.920;2023-06-04T12:48:43;4.80;;;1.80;;
75340;SDS011;64931;47.562;18.920;2023-06-04T12:51:09;6.70;;;1.90;;
75340;SDS011;64931;47.562;18.920;2023-06-04T12:53:38;6.20;;;1.90;;
75340;SDS011;64931;47.562;18.920;2023-06-04T12:56:05;5.00;;;2.10;;
75340;SDS011;64931;47.562;18.920;2023-06-04T12:58:30;5.00;;;1.70;;
75340;SDS011;64931;47.562;18.920;2023-06-04T13:00:56;5.00;;;1.80;;
75340;SDS011;64931;47.562;18.920;2023-06-04T13:03:21;4.10;;;1.60;;
75340;SDS011;64931;47.562;18.920;2023-06-04T13:05:46;4.20;;;1.80;;
75340;SDS011;64931;47.562;18.920;2023-06-04T13:08:12;7.60;;;2.10;;
75340;SDS011;64931;47.562;18.920;2023-06-04T13:10:37;4.60;;;1.80;;
75340;SDS011;64931;47.562;18.920;2023-06-04T13:13:03;5.20;;;2.10;;
75340;SDS011;64931;47.562;18.920;2023-06-04T13:15:28;4.30;;;1.70;;
75340;SDS011;64931;47.562;18.920;2023-06-04T13:17:54;5.10;;;1.90;;
75340;SDS011;64931;47.562;18.920;2023-06-04T13:20:20;5.60;;;1.90;;
75340;SDS011;64931;47.562;18.920;2023-06-04T13:22:45;5.70;;;1.80;;
75340;SDS011;64931;47.562;18.920;2023-06-04T13:25:12;5.90;;;2.10;;
75340;SDS011;64931;47.562;18.920;2023-06-04T13:27:37;3.80;;;1.90;;
75340;SDS011;64931;47.562;18.920;2023-06-04T13:30:03;7.80;;;2.30;;
75340;SDS011;64931;47.562;18.920;2023-06-04T13:32:30;4.40;;;2.00;;
75340;SDS011;64931;47.562;18.920;2023-06-04T13:34:56;3.30;;;1.90;;
75340;SDS011;64931;47.562;18.920;2023-06-04T13:37:21;5.20;;;2.10;;
75340;SDS011;64931;47.562;18.920;2023-06-04T13:39:47;5.30;;;2.20;;
75340;SDS011;64931;47.562;18.920;2023-06-04T13:42:12;8.70;;;2.20;;
75340;SDS011;64931;47.562;18.920;2023-06-04T13:44:37;3.90;;;2.20;;
75340;SDS011;64931;47.562;18.920;2023-06-04T13:47:03;5.10;;;2.40;;
75340;SDS011;64931;47.562;18.920;2023-06-04T13:49:31;5.20;;;2.10;;
75340;SDS011;64931;47.562;18.920;2023-06-04T13:51:57;4.00;;;2.20;;
75340;SDS011;64931;47.562;18.920;2023-06-04T13:54:22;6.60;;;2.60;;
75340;SDS011;64931;47.562;18.920;2023-06-04T13:56:48;6.20;;;2.30;;
75340;SDS011;64931;47.562;18.920;2023-06-04T13:59:13;4.60;;;2.40;;
75340;SDS011;64931;47.562;18.920;2023-06-04T14:01:39;7.60;;;2.30;;
75340;SDS011;64931;47.562;18.920;2023-06-04T14:04:05;6.00;;;2.50;;
75340;SDS011;64931;47.562;18.920;2023-06-04T14:06:31;7.00;;;2.90;;
75340;SDS011;64931;47.562;18.920;2023-06-04T14:08:56;4.80;;;2.40;;
75340;SDS011;64931;47.562;18.920;2023-06-04T14:11:22;4.60;;;2.30;;
75340;SDS011;64931;47.562;18.920;2023-06-04T14:13:47;8.60;;;2.70;;
75340;SDS011;64931;47.562;18.920;2023-06-04T14:16:13;5.30;;;2.40;;
75340;SDS011;64931;47.562;18.920;2023-06-04T14:18:39;5.90;;;2.50;;
75340;SDS011;64931;47.562;18.920;2023-06-04T14:21:05;5.30;;;2.60;;
75340;SDS011;64931;47.562;18.920;2023-06-04T14:23:30;4.90;;;2.60;;
75340;SDS011;64931;47.562;18.920;2023-06-04T14:25:56;4.90;;;2.50;;
75340;SDS011;64931;47.562;18.920;2023-06-04T14:28:21;7.50;;;2.90;;
75340;SDS011;64931;47.562;18.920;2023-06-04T14:30:47;4.50;;;2.50;;
75340;SDS011;64931;47.562;18.920;2023-06-04T14:33:12;7.60;;;2.50;;
75340;SDS011;64931;47.562;18.920;2023-06-04T14:35:38;4.50;;;2.40;;
75340;SDS011;64931;47.562;18.920;2023-06-04T14:38:11;4.20;;;2.40;;
75340;SDS011;64931;47.562;18.920;2023-06-04T14:40:40;5.20;;;2.40;;
75340;SDS011;64931;47.562;18.920;2023-06-04T14:43:07;5.20;;;2.20;;
75340;SDS011;64931;47.562;18.920;2023-06-04T14:45:32;5.60;;;2.40;;
75340;SDS011;64931;47.562;18.920;2023-06-04T14:47:58;7.00;;;2.60;;